Time;durP1;ratioP1;P1;durP2;ratioP2;P2;SDS_P1;SDS_P2;PMS_P1;PMS_P2;Temp;Humidity;BMP_temperature;BMP_pressure;BME280_temperature;BME280_humidity;BME280_pressure;Samples;Min_cycle;Max_cycle;Signal;HPM_P1;HPM_P2
2023/09/19 00:00:48;;;;;;;11.02;2.08;;;;;;;17.75;75.58;100838.41;5045892;28;20049;-68
2023/09/19 00:03:16;;;;;;;12.88;2.38;;;;;;;17.97;74.50;100845.34;5050866;28;20052;-67
2023/09/19 00:05:44;;;;;;;8.52;2.13;;;;;;;17.84;74.50;100846.59;5050731;28;20049;-68
2023/09/19 00:08:13;;;;;;;8.85;2.17;;;;;;;17.58;75.36;100849.06;5047767;28;20057;-66
2023/09/19 00:10:41;;;;;;;11.27;1.95;;;;;;;17.64;75.22;100851.22;5051362;28;20049;-66
2023/09/19 00:13:13;;;;;;;8.98;2.17;;;;;;;17.90;74.18;100853.53;5051552;28;20056;-67
2023/09/19 00:15:49;;;;;;;11.57;2.40;;;;;;;18.09;73.03;100850.81;5049452;28;20060;-68
2023/09/19 00:18:20;;;;;;;14.18;2.13;;;;;;;18.05;72.76;100857.47;5050149;28;20049;-67
2023/09/19 00:20:48;;;;;;;18.92;2.65;;;;;;;18.06;72.45;100856.31;5051583;28;20045;-67
2023/09/19 00:23:17;;;;;;;15.52;2.15;;;;;;;17.87;73.12;100852.25;5049849;28;20432;-67
2023/09/19 00:25:45;;;;;;;8.90;2.05;;;;;;;18.04;72.74;100858.63;5049181;28;20404;-67
2023/09/19 00:28:12;;;;;;;10.18;2.25;;;;;;;17.81;73.56;100864.03;5044406;28;20052;-68
2023/09/19 00:30:45;;;;;;;8.02;1.80;;;;;;;17.78;74.57;100867.53;5053867;28;20052;-68
2023/09/19 00:33:16;;;;;;;8.55;2.25;;;;;;;17.84;74.48;100872.47;5039370;28;20056;-67
2023/09/19 00:35:52;;;;;;;9.88;2.28;;;;;;;17.80;74.83;100868.00;5054115;28;20060;-68
2023/09/19 00:38:26;;;;;;;9.32;1.70;;;;;;;17.94;74.26;100871.94;5035291;28;20053;-68
2023/09/19 00:40:56;;;;;;;9.35;2.42;;;;;;;17.72;75.36;100861.41;5053965;28;20045;-67
2023/09/19 00:43:27;;;;;;;9.00;1.90;;;;;;;17.61;75.84;100863.09;5053395;28;20045;-66
2023/09/19 00:45:56;;;;;;;8.52;2.35;;;;;;;17.52;76.40;100872.78;5052993;28;20061;-67
2023/09/19 00:48:28;;;;;;;9.85;1.80;;;;;;;17.51;76.71;100874.75;5054521;28;20064;-67
2023/09/19 00:51:00;;;;;;;10.32;1.85;;;;;;;17.68;76.62;100880.00;5048129;28;20055;-69
2023/09/19 00:53:27;;;;;;;9.23;1.88;;;;;;;17.63;76.64;100876.66;5036699;28;20049;-68
2023/09/19 00:55:56;;;;;;;12.88;2.22;;;;;;;17.73;76.44;100876.94;5036121;28;20660;-63
2023/09/19 00:58:23;;;;;;;9.18;2.28;;;;;;;17.76;76.55;100876.25;5039094;28;20053;-64
2023/09/19 01:00:50;;;;;;;13.80;2.20;;;;;;;17.64;76.24;100881.88;5053959;28;20447;-63
2023/09/19 01:03:18;;;;;;;9.27;1.80;;;;;;;17.48;77.53;100877.44;5053202;28;20053;-64
2023/09/19 01:05:46;;;;;;;12.43;2.40;;;;;;;17.48;78.40;100881.06;5054051;28;20063;-65
2023/09/19 01:08:14;;;;;;;10.90;1.77;;;;;;;17.33;78.51;100880.97;5053749;28;20040;-64
2023/09/19 01:10:49;;;;;;;11.65;1.92;;;;;;;17.45;78.92;100878.94;5055014;28;20059;-64
2023/09/19 01:13:45;;;;;;;10.70;2.25;;;;;;;17.42;78.64;100885.22;5053119;28;20056;-66
2023/09/19 01:16:50;;;;;;;11.25;2.45;;;;;;;17.23;79.57;100887.84;5051882;28;20542;-69
2023/09/19 01:19:33;;;;;;;11.45;1.90;;;;;;;17.00;80.81;100886.75;5049901;28;20053;-66
2023/09/19 01:22:10;;;;;;;10.18;2.05;;;;;;;17.11;80.83;100887.06;5053302;28;20045;-66
2023/09/19 01:24:46;;;;;;;7.45;1.63;;;;;;;17.21;80.43;100884.59;5052903;28;20116;-67
2023/09/19 01:27:19;;;;;;;10.18;2.17;;;;;;;17.15;80.55;100885.22;5050039;28;20151;-67
2023/09/19 01:29:49;;;;;;;9.15;2.22;;;;;;;17.18;80.67;100878.94;5053876;28;20442;-67
2023/09/19 01:32:24;;;;;;;14.20;2.45;;;;;;;17.16;80.57;100876.50;5048141;28;20080;-67
2023/09/19 01:35:03;;;;;;;7.97;2.03;;;;;;;17.08;80.33;100880.25;5015145;28;20053;-65
2023/09/19 01:37:31;;;;;;;11.45;1.98;;;;;;;17.04;80.47;100876.56;5050368;28;20049;-67
2023/09/19 01:40:08;;;;;;;12.55;1.98;;;;;;;17.21;80.15;100879.03;5053125;28;20033;-67
2023/09/19 01:42:48;;;;;;;11.50;2.15;;;;;;;17.12;79.83;100888.72;5056567;28;20506;-67
2023/09/19 01:45:40;;;;;;;13.23;2.60;;;;;;;17.06;80.18;100890.94;5052323;28;20056;-65
2023/09/19 01:48:21;;;;;;;11.73;2.42;;;;;;;17.02;80.33;100892.78;5052730;28;20049;-67
2023/09/19 01:50:58;;;;;;;10.10;2.08;;;;;;;17.13;79.59;100891.13;5051619;28;20670;-66
2023/09/19 01:54:09;;;;;;;11.07;2.03;;;;;;;17.23;79.61;100892.59;5049185;28;20061;-67
2023/09/19 01:56:41;;;;;;;9.45;2.28;;;;;;;17.41;80.30;100903.09;5086209;28;20056;-68
2023/09/19 01:59:21;;;;;;;12.02;2.33;;;;;;;17.35;81.79;100898.94;5053966;28;20061;-66
2023/09/19 02:01:49;;;;;;;7.30;2.28;;;;;;;17.42;82.06;100906.66;5066564;28;20041;-67
2023/09/19 02:04:17;;;;;;;10.82;2.17;;;;;;;17.43;81.47;100905.53;5055101;28;20051;-66
2023/09/19 02:06:47;;;;;;;12.73;2.28;;;;;;;17.44;81.36;100909.91;5060777;28;20687;-66
2023/09/19 02:09:15;;;;;;;;;;;;;;;17.44;80.63;100905.16;5042287;28;20059;-69
2023/09/19 02:11:42;;;;;;;8.82;1.83;;;;;;;17.38;80.07;100898.22;5061767;28;19931;-67
2023/09/19 02:14:10;;;;;;;13.98;2.60;;;;;;;17.39;79.46;100904.59;5061099;28;20040;-67
2023/09/19 02:16:37;;;;;;;11.55;2.38;;;;;;;17.39;79.50;100908.22;5060485;28;20657;-67
2023/09/19 02:19:05;;;;;;;8.63;1.67;;;;;;;17.38;79.81;100905.78;5051390;28;20045;-66
2023/09/19 02:21:33;;;;;;;9.32;1.85;;;;;;;17.40;80.34;100906.25;5066715;28;20041;-68
2023/09/19 02:24:00;;;;;;;8.60;2.20;;;;;;;17.45;80.20;100909.56;5057316;28;20052;-67
2023/09/19 02:26:28;;;;;;;12.98;2.30;;;;;;;17.34;79.49;100897.31;5060315;28;20068;-67
2023/09/19 02:28:55;;;;;;;11.57;2.15;;;;;;;17.40;80.13;100903.47;5053017;28;20048;-68
2023/09/19 02:31:22;;;;;;;11.90;2.70;;;;;;;17.42;78.94;100899.13;5052336;28;20049;-67
2023/09/19 02:33:50;;;;;;;13.25;2.40;;;;;;;17.36;79.88;100899.75;5046809;28;20053;-68
2023/09/19 02:36:18;;;;;;;11.18;2.30;;;;;;;17.39;78.77;100904.59;5030727;28;20037;-68
2023/09/19 02:38:45;;;;;;;14.05;2.50;;;;;;;17.48;79.11;100900.53;5044485;28;20593;-68
2023/09/19 02:41:15;;;;;;;7.38;1.80;;;;;;;17.50;78.41;100901.00;5051515;28;20067;-68
2023/09/19 02:43:43;;;;;;;11.95;2.03;;;;;;;17.39;78.04;100901.81;5062288;28;20056;-68
2023/09/19 02:46:11;;;;;;;9.63;2.58;;;;;;;17.35;78.47;100898.94;5072176;28;20060;-67
2023/09/19 02:48:40;;;;;;;9.23;2.08;;;;;;;17.20;78.52;100901.66;5063888;28;20060;-68
2023/09/19 02:51:07;;;;;;;11.18;2.38;;;;;;;17.32;78.76;100904.41;5062265;28;20400;-68
2023/09/19 02:53:35;;;;;;;10.98;2.35;;;;;;;17.34;78.54;100907.66;5067636;28;20052;-68
2023/09/19 02:56:04;;;;;;;13.25;2.58;;;;;;;17.29;77.22;100908.72;5051060;28;20048;-68
2023/09/19 02:58:35;;;;;;;12.15;2.30;;;;;;;17.41;77.83;100903.09;5036925;28;20421;-68
2023/09/19 03:01:11;;;;;;;11.68;2.30;;;;;;;17.32;77.02;100901.63;5047949;28;20049;-66
2023/09/19 03:03:39;;;;;;;14.20;2.72;;;;;;;17.18;77.79;100899.25;5023587;28;20056;-67
2023/09/19 03:06:08;;;;;;;12.27;2.72;;;;;;;17.19;78.12;100898.06;5052499;28;20052;-68
2023/09/19 03:08:37;;;;;;;12.95;2.63;;;;;;;17.28;78.44;100898.72;5051795;28;20052;-68
2023/09/19 03:11:15;;;;;;;10.50;2.42;;;;;;;17.13;77.70;100899.50;5063782;28;20040;-67
2023/09/19 03:13:46;;;;;;;17.17;2.45;;;;;;;16.93;78.18;100894.88;5055600;28;20049;-67
2023/09/19 03:16:15;;;;;;;15.27;2.50;;;;;;;16.85;78.78;100910.56;5031750;28;20053;-67
2023/09/19 03:18:43;;;;;;;14.80;2.93;;;;;;;17.10;78.16;100905.78;5038382;28;20539;-68
2023/09/19 03:21:10;;;;;;;12.50;2.15;;;;;;;17.00;77.85;100906.25;5026096;28;20574;-68
2023/09/19 03:23:40;;;;;;;;;;;;;;;16.95;78.40;100898.13;5052754;28;20037;-68
2023/09/19 03:26:08;;;;;;;15.02;2.70;;;;;;;16.77;79.36;100907.94;5049978;28;19932;-67
2023/09/19 03:28:35;;;;;;;14.90;2.72;;;;;;;16.89;79.03;100908.69;5045391;28;20053;-67
2023/09/19 03:31:04;;;;;;;15.05;2.92;;;;;;;16.84;78.88;100908.94;5038024;28;20045;-68
2023/09/19 03:33:35;;;;;;;16.45;2.80;;;;;;;16.85;78.65;100909.75;5067287;28;20428;-69
2023/09/19 03:36:07;;;;;;;19.75;3.17;;;;;;;16.84;78.55;100903.38;5050217;28;20060;-68
2023/09/19 03:38:34;;;;;;;11.55;2.40;;;;;;;16.98;79.01;100903.00;5046439;28;20059;-67
2023/09/19 03:41:02;;;;;;;19.55;3.13;;;;;;;16.86;78.78;100900.25;5051850;28;20084;-66
2023/09/19 03:43:32;;;;;;;16.73;2.90;;;;;;;16.84;78.50;100900.59;5034264;28;20052;-67
2023/09/19 03:46:04;;;;;;;12.15;2.45;;;;;;;16.93;78.89;100889.31;5036502;28;20045;-67
2023/09/19 03:48:33;;;;;;;19.08;3.20;;;;;;;16.70;78.83;100897.38;5037676;28;20044;-67
2023/09/19 03:51:02;;;;;;;16.47;2.77;;;;;;;16.58;79.70;100893.81;5034571;28;20057;-69
2023/09/19 03:53:29;;;;;;;13.85;2.92;;;;;;;16.57;80.02;100901.34;5052711;28;20280;-68
2023/09/19 03:55:57;;;;;;;12.70;2.22;;;;;;;16.44;80.76;100896.09;5050674;28;20546;-67
2023/09/19 03:58:25;;;;;;;14.35;2.70;;;;;;;16.58;80.57;100896.59;5034310;28;20420;-67
2023/09/19 04:00:56;;;;;;;17.30;3.03;;;;;;;16.61;80.27;100891.16;5051532;28;20053;-66
2023/09/19 04:03:28;;;;;;;12.82;2.58;;;;;;;16.63;79.64;100893.56;5049681;28;20041;-68
2023/09/19 04:05:56;;;;;;;15.80;2.67;;;;;;;16.65;80.22;100908.75;5050297;28;20049;-68
2023/09/19 04:08:23;;;;;;;14.73;2.75;;;;;;;16.74;79.51;100889.13;5051955;28;20049;-68
2023/09/19 04:10:51;;;;;;;14.13;3.05;;;;;;;16.76;79.52;100901.53;5062999;28;20060;-67
2023/09/19 04:13:18;;;;;;;16.27;3.10;;;;;;;16.89;79.22;100889.22;5069295;28;20044;-66
2023/09/19 04:15:46;;;;;;;13.10;2.85;;;;;;;16.73;79.17;100899.47;5051213;28;20053;-69
2023/09/19 04:18:13;;;;;;;11.95;2.25;;;;;;;16.78;78.75;100895.63;5052748;28;20049;-67
2023/09/19 04:20:48;;;;;;;10.50;2.20;;;;;;;16.72;79.41;100891.44;5069565;28;20554;-67
2023/09/19 04:23:16;;;;;;;16.08;3.20;;;;;;;16.86;78.86;100884.38;5069877;28;20061;-67
2023/09/19 04:25:44;;;;;;;9.48;2.63;;;;;;;16.75;78.98;100894.34;5057331;28;20116;-68
2023/09/19 04:28:11;;;;;;;18.92;2.78;;;;;;;16.86;78.51;100894.69;5051351;28;20041;-67
2023/09/19 04:30:41;;;;;;;17.23;3.60;;;;;;;16.72;78.86;100903.41;5049583;28;20049;-66
2023/09/19 04:33:09;;;;;;;13.30;2.78;;;;;;;16.88;78.88;100893.19;5062887;28;20052;-66
2023/09/19 04:35:38;;;;;;;12.10;2.50;;;;;;;16.76;78.94;100895.16;5053512;28;20057;-67
2023/09/19 04:38:06;;;;;;;14.43;2.65;;;;;;;16.60;79.59;100899.81;5049894;28;20064;-67
2023/09/19 04:40:35;;;;;;;17.52;2.58;;;;;;;16.65;79.21;100899.56;5050919;28;20481;-68
2023/09/19 04:43:02;;;;;;;17.67;3.20;;;;;;;16.68;78.46;100898.91;5046743;28;20519;-67
2023/09/19 04:45:30;;;;;;;18.00;2.80;;;;;;;16.78;78.46;100898.41;5069727;28;20059;-67
2023/09/19 04:47:57;;;;;;;17.23;3.22;;;;;;;16.88;78.42;100891.56;5071681;28;20048;-68
2023/09/19 04:50:26;;;;;;;16.88;3.88;;;;;;;16.82;78.44;100886.22;5068380;28;20463;-67
2023/09/19 04:52:54;;;;;;;17.20;2.92;;;;;;;16.66;78.52;100907.59;5051296;28;20052;-68
2023/09/19 04:55:21;;;;;;;15.43;2.95;;;;;;;16.71;78.50;100915.69;5051247;28;20152;-67
2023/09/19 04:57:53;;;;;;;14.27;2.50;;;;;;;16.62;79.00;100914.19;5051378;28;20044;-67
2023/09/19 05:00:24;;;;;;;15.60;2.80;;;;;;;16.64;79.07;100921.03;5066093;28;20057;-67
2023/09/19 05:02:52;;;;;;;20.00;3.28;;;;;;;16.51;79.35;100922.19;5050956;28;20048;-67
2023/09/19 05:05:20;;;;;;;16.35;3.47;;;;;;;16.52;79.48;100926.59;5051150;28;20048;-67
2023/09/19 05:07:48;;;;;;;13.80;2.55;;;;;;;16.66;79.30;100923.47;5051142;28;20571;-67
2023/09/19 05:10:18;;;;;;;12.55;2.85;;;;;;;16.60;79.54;100920.09;5054103;28;20055;-67
2023/09/19 05:12:48;;;;;;;16.60;2.92;;;;;;;16.65;79.38;100922.66;5050854;28;20057;-68
2023/09/19 05:15:16;;;;;;;11.82;3.28;;;;;;;16.58;78.94;100919.63;5050483;28;20854;-68
2023/09/19 05:17:51;;;;;;;23.90;7.10;;;;;;;16.67;79.14;100919.50;5069575;28;20053;-67
2023/09/19 05:20:29;;;;;;;11.98;2.92;;;;;;;16.49;79.87;100923.72;5074142;28;20055;-68
2023/09/19 05:23:07;;;;;;;15.98;2.90;;;;;;;16.57;79.74;100920.81;5072709;28;21078;-66
2023/09/19 05:25:39;;;;;;;16.38;2.65;;;;;;;16.52;79.59;100925.78;5054925;28;20053;-67
2023/09/19 05:28:08;;;;;;;18.90;3.40;;;;;;;16.47;79.79;100931.59;5036572;28;20064;-67
2023/09/19 05:30:35;;;;;;;15.25;3.45;;;;;;;16.50;79.18;100923.34;5049567;28;20045;-67
2023/09/19 05:33:04;;;;;;;15.85;3.60;;;;;;;16.51;79.42;100935.31;5065876;28;20063;-67
2023/09/19 05:35:32;;;;;;;17.60;4.35;;;;;;;16.58;79.51;100935.53;5057890;28;20064;-65
2023/09/19 05:38:00;;;;;;;11.93;3.25;;;;;;;16.54;79.10;100938.19;5047856;28;20160;-68
2023/09/19 05:40:27;;;;;;;14.27;2.50;;;;;;;16.47;79.40;100937.16;5048935;28;20060;-67
2023/09/19 05:42:54;;;;;;;12.50;3.13;;;;;;;16.30;79.99;100937.34;5054323;28;20045;-67
2023/09/19 05:45:22;;;;;;;18.13;3.45;;;;;;;16.60;79.04;100936.78;5067911;28;20215;-68
2023/09/19 05:47:51;;;;;;;14.18;3.20;;;;;;;16.66;79.02;100951.28;5074143;28;20503;-67
2023/09/19 05:50:19;;;;;;;15.48;2.75;;;;;;;16.73;79.06;100952.31;5072469;28;20048;-68
2023/09/19 05:52:54;;;;;;;17.08;2.95;;;;;;;16.64;78.51;100957.19;5053956;28;20518;-66
2023/09/19 05:55:24;;;;;;;12.90;2.08;;;;;;;16.70;78.79;100955.00;5064542;28;20052;-67
2023/09/19 05:57:52;;;;;;;;;;;;;;;16.66;79.34;100952.09;5074010;28;20086;-67
2023/09/19 06:00:22;;;;;;;20.08;2.83;;;;;;;16.57;79.53;100956.97;5072278;28;20294;-68
2023/09/19 06:02:54;;;;;;;14.13;3.33;;;;;;;16.47;79.81;100963.00;5089393;28;20057;-65
2023/09/19 06:05:22;;;;;;;17.88;3.15;;;;;;;16.63;79.16;100963.91;5072599;28;20568;-67
2023/09/19 06:07:50;;;;;;;12.63;2.75;;;;;;;16.74;78.76;100967.84;5061186;28;20033;-69
2023/09/19 06:10:20;;;;;;;17.23;2.47;;;;;;;16.93;78.25;100967.25;5060879;28;20056;-67
2023/09/19 06:12:48;;;;;;;15.43;2.90;;;;;;;16.70;78.63;100968.91;5055481;28;20053;-69
2023/09/19 06:15:18;;;;;;;13.60;2.90;;;;;;;16.41;79.65;100966.28;5065336;28;20063;-67
2023/09/19 06:17:48;;;;;;;17.70;3.17;;;;;;;16.72;79.18;100963.78;5057900;28;20048;-67
2023/09/19 06:20:16;;;;;;;18.10;3.73;;;;;;;16.58;79.62;100960.56;5053276;28;20603;-67
2023/09/19 06:22:45;;;;;;;16.90;2.78;;;;;;;16.83;78.70;100959.38;5052993;28;20798;-68
2023/09/19 06:25:19;;;;;;;12.05;2.60;;;;;;;16.83;78.70;100962.97;5054043;28;20447;-67
2023/09/19 06:27:55;;;;;;;14.95;3.60;;;;;;;16.79;78.57;100964.81;5052086;28;20395;-68
2023/09/19 06:30:24;;;;;;;15.95;4.22;;;;;;;16.78;78.18;100968.78;5039873;28;20065;-69
2023/09/19 06:33:03;;;;;;;13.90;2.88;;;;;;;16.75;78.65;100963.88;5046430;28;20432;-67
2023/09/19 06:35:33;;;;;;;12.25;2.40;;;;;;;16.81;78.06;100970.03;5049411;28;20049;-67
2023/09/19 06:38:04;;;;;;;16.90;2.83;;;;;;;16.78;78.15;100970.75;5022742;28;20061;-67
2023/09/19 06:40:33;;;;;;;19.83;3.80;;;;;;;16.72;78.37;100969.34;5044149;28;20709;-67
2023/09/19 06:43:04;;;;;;;20.33;7.63;;;;;;;16.75;78.07;100977.00;5056378;28;20515;-67
2023/09/19 06:45:32;;;;;;;12.55;3.05;;;;;;;16.68;78.01;100968.44;5045224;28;20084;-68
2023/09/19 06:48:00;;;;;;;16.02;2.80;;;;;;;16.76;78.04;100973.88;5041601;28;20053;-68
2023/09/19 06:50:27;;;;;;;16.00;2.85;;;;;;;16.84;77.59;100972.94;5049433;28;20045;-67
2023/09/19 06:52:57;;;;;;;13.65;2.92;;;;;;;16.98;76.74;100964.22;5052748;28;20056;-67
2023/09/19 06:55:27;;;;;;;20.23;3.33;;;;;;;16.92;76.90;100970.38;5067909;28;20056;-68
2023/09/19 06:57:56;;;;;;;17.85;3.47;;;;;;;17.11;76.18;100965.84;5052584;28;20053;-67
2023/09/19 07:00:24;;;;;;;9.75;2.30;;;;;;;17.22;75.69;100975.31;5051185;28;20717;-68
2023/09/19 07:03:00;;;;;;;14.40;2.70;;;;;;;17.19;75.13;100964.88;5054305;28;20060;-67
2023/09/19 07:05:28;;;;;;;12.70;2.80;;;;;;;17.34;74.16;100963.34;5038284;28;20144;-67
2023/09/19 07:07:58;;;;;;;14.02;4.38;;;;;;;17.26;74.50;100972.66;5047876;28;20053;-66
2023/09/19 07:10:27;;;;;;;;;;;;;;;17.45;74.17;100972.81;5044384;28;20045;-66
2023/09/19 07:13:02;;;;;;;18.80;3.60;;;;;;;17.46;73.34;100972.50;5062251;28;19920;-67
2023/09/19 07:15:35;;;;;;;18.08;2.85;;;;;;;17.28;73.34;100976.69;5048749;28;20060;-68
2023/09/19 07:18:06;;;;;;;14.13;3.42;;;;;;;17.40;73.57;100973.06;5048615;28;20037;-67
2023/09/19 07:20:34;;;;;;;15.57;2.40;;;;;;;17.49;72.96;100969.00;5056158;28;20075;-67
2023/09/19 07:23:02;;;;;;;12.52;2.88;;;;;;;17.65;72.26;100967.09;5046869;28;20053;-67
2023/09/19 07:25:30;;;;;;;16.02;3.13;;;;;;;17.54;72.45;100956.81;5048088;28;20053;-67
2023/09/19 07:27:59;;;;;;;15.48;3.10;;;;;;;17.64;72.63;100961.88;5049562;28;20400;-67
2023/09/19 07:30:28;;;;;;;;;;;;;;;18.13;76.06;100956.84;5050822;28;20055;-65
2023/09/19 07:32:55;;;;;;;12.00;2.10;;;;;;;19.93;68.44;100952.28;5051051;28;19927;-52
2023/09/19 07:35:22;;;;;;;12.10;2.25;;;;;;;20.03;62.86;100953.69;5046608;28;21764;-52
2023/09/19 07:37:51;;;;;;;12.98;2.70;;;;;;;20.81;58.35;100947.44;5046232;28;20045;-55
2023/09/19 07:40:20;;;;;;;15.15;2.85;;;;;;;19.34;62.38;100959.44;5054559;28;20044;-50
2023/09/19 07:42:48;;;;;;;14.38;2.97;;;;;;;20.93;61.37;100952.81;5045916;28;20059;-54
2023/09/19 07:45:17;;;;;;;12.40;2.78;;;;;;;22.32;53.92;100930.53;5046226;28;20128;-54
2023/09/19 07:47:45;;;;;;;14.93;3.70;;;;;;;22.56;54.69;100939.59;5044795;28;20072;-50
2023/09/19 07:50:14;;;;;;;12.70;3.28;;;;;;;22.96;53.98;100940.28;5047487;28;20108;-53
2023/09/19 07:52:42;;;;;;;9.68;2.50;;;;;;;23.27;52.92;100933.25;5048179;28;20041;-56
2023/09/19 07:55:17;;;;;;;9.90;2.35;;;;;;;23.48;51.66;100939.00;5045394;28;20052;-53
2023/09/19 07:57:44;;;;;;;14.25;2.47;;;;;;;23.61;51.24;100931.81;5017900;28;20045;-54
2023/09/19 08:00:12;;;;;;;11.40;2.22;;;;;;;23.70;51.18;100937.88;5045028;28;20052;-58
2023/09/19 08:02:41;;;;;;;13.05;2.88;;;;;;;23.75;51.02;100936.69;5049864;28;20064;-53
2023/09/19 08:05:15;;;;;;;8.30;2.58;;;;;;;23.79;50.73;100941.13;5038384;28;20049;-55
2023/09/19 08:07:45;;;;;;;10.38;3.17;;;;;;;23.82;51.02;100945.13;5051327;28;20041;-54
2023/09/19 08:10:15;;;;;;;8.90;2.20;;;;;;;23.84;50.60;100937.91;5048625;28;20525;-51
2023/09/19 08:12:46;;;;;;;9.23;2.37;;;;;;;23.87;50.33;100945.56;5045691;28;20448;-54
2023/09/19 08:15:15;;;;;;;10.18;2.92;;;;;;;23.88;50.37;100949.19;5049878;28;20049;-54
2023/09/19 08:17:43;;;;;;;9.27;2.33;;;;;;;23.91;50.17;100945.56;5046771;28;20044;-52
2023/09/19 08:20:18;;;;;;;8.70;1.88;;;;;;;23.92;50.00;100942.34;5049490;28;20072;-53
2023/09/19 08:22:52;;;;;;;8.32;2.45;;;;;;;23.94;50.25;100954.03;5049148;28;20056;-52
2023/09/19 08:25:21;;;;;;;7.93;2.22;;;;;;;23.94;49.77;100954.03;5045511;28;20052;-54
2023/09/19 08:27:49;;;;;;;13.18;2.90;;;;;;;23.97;49.83;100947.59;5050181;28;20049;-53
2023/09/19 08:30:23;;;;;;;8.68;2.10;;;;;;;23.97;50.00;100946.81;5048994;28;20575;-52
2023/09/19 08:33:02;;;;;;;6.28;2.38;;;;;;;23.98;49.68;100940.78;5041808;28;20053;-52
2023/09/19 08:35:30;;;;;;;10.32;2.60;;;;;;;24.00;49.43;100952.47;5045785;28;20057;-54
2023/09/19 08:38:00;;;;;;;10.20;2.47;;;;;;;24.04;49.51;100952.47;5044128;28;20539;-54
2023/09/19 08:40:29;;;;;;;10.93;2.67;;;;;;;24.03;49.53;100957.28;5046507;28;20056;-54
2023/09/19 08:42:57;;;;;;;7.57;2.15;;;;;;;24.08;49.80;100953.28;5046708;28;20050;-54
2023/09/19 08:45:28;;;;;;;12.43;2.70;;;;;;;24.11;49.17;100953.28;5045327;28;20496;-52
2023/09/19 08:48:14;;;;;;;13.95;2.67;;;;;;;24.15;49.32;100959.72;5048354;28;20063;-53
2023/09/19 08:51:01;;;;;;;10.05;2.60;;;;;;;24.15;49.32;100959.72;5059027;28;20068;-50
2023/09/19 08:53:46;;;;;;;9.07;2.10;;;;;;;24.16;49.22;100955.72;5030362;28;20046;-51
2023/09/19 08:56:17;;;;;;;5.53;1.90;;;;;;;24.16;49.25;100954.91;5054174;28;20061;-52
2023/09/19 08:58:53;;;;;;;;;;;;;;;24.16;49.15;100958.53;5049555;28;20047;-52
2023/09/19 09:01:26;;;;;;;8.07;2.47;;;;;;;24.17;49.01;100960.13;5057370;28;19932;-53
2023/09/19 09:03:55;;;;;;;9.57;2.80;;;;;;;24.07;49.47;100954.50;5051779;28;20380;-54
2023/09/19 09:06:24;;;;;;;9.23;2.85;;;;;;;24.15;49.27;100951.28;5053317;28;20057;-52
2023/09/19 09:08:52;;;;;;;7.65;2.33;;;;;;;24.20;48.92;100955.72;5046547;28;20045;-53
2023/09/19 09:11:20;;;;;;;8.77;2.47;;;;;;;24.19;49.11;100960.56;5048867;28;20040;-53
2023/09/19 09:13:47;;;;;;;9.57;2.10;;;;;;;24.15;49.46;100956.91;5052477;28;20045;-54
2023/09/19 09:16:18;;;;;;;10.43;3.17;;;;;;;24.10;49.52;100962.94;5055635;28;20049;-53
2023/09/19 09:18:52;;;;;;;8.68;2.25;;;;;;;24.07;49.94;100946.88;5052623;28;20049;-54
2023/09/19 09:21:29;;;;;;;9.40;2.50;;;;;;;24.11;49.66;100958.91;5052563;28;20824;-55
2023/09/19 09:23:57;;;;;;;7.28;2.00;;;;;;;24.10;49.87;100954.50;5045118;28;20052;-54
2023/09/19 09:26:37;;;;;;;11.30;2.67;;;;;;;24.02;49.72;100946.44;5046760;28;20056;-53
2023/09/19 09:29:04;;;;;;;15.18;2.80;;;;;;;24.05;50.14;100943.63;5048936;28;20067;-54
2023/09/19 09:31:31;;;;;;;9.52;2.17;;;;;;;24.06;50.29;100953.69;5049133;28;20060;-55
2023/09/19 09:34:00;;;;;;;8.20;2.30;;;;;;;24.11;49.76;100952.50;5049729;28;20041;-55
2023/09/19 09:36:36;;;;;;;9.38;2.42;;;;;;;24.12;49.41;100952.09;5047713;28;20053;-55
2023/09/19 09:39:15;;;;;;;10.07;2.60;;;;;;;24.14;49.66;100946.06;5049516;28;20539;-54
2023/09/19 09:41:44;;;;;;;7.53;2.03;;;;;;;24.16;49.48;100936.03;5048667;28;20053;-55
2023/09/19 09:44:17;;;;;;;8.63;2.50;;;;;;;24.18;49.16;100941.25;5044874;28;20515;-54
2023/09/19 09:52:07;;;;;;;7.72;1.75;;;;;;;24.13;49.18;100956.50;5051909;28;20048;-53
2023/09/19 09:54:38;;;;;;;7.53;2.08;;;;;;;24.02;49.54;100950.06;5045935;28;20053;-54
2023/09/19 09:57:14;;;;;;;7.28;1.90;;;;;;;23.79;49.98;100941.13;5047355;28;20045;-54
2023/09/19 09:59:58;;;;;;;7.80;2.10;;;;;;;24.05;49.16;100942.81;5062629;28;20045;-56
2023/09/19 10:02:28;;;;;;;7.15;2.10;;;;;;;24.13;49.33;100936.03;5049155;28;20048;-55
2023/09/19 10:07:51;;;;;;;7.70;2.22;;;;;;;24.21;48.69;100944.06;5055441;28;20053;-52
2023/09/19 10:10:43;;;;;;;6.60;1.70;;;;;;;24.21;48.67;100934.81;5048839;28;20057;-53
2023/09/19 10:13:14;;;;;;;6.65;2.22;;;;;;;24.22;48.54;100933.59;5049884;28;20147;-53
2023/09/19 10:15:50;;;;;;;6.55;2.10;;;;;;;24.24;48.15;100925.56;5050164;28;20140;-52
2023/09/19 10:18:23;;;;;;;7.18;2.30;;;;;;;24.07;48.72;100921.53;5050941;28;20201;-54
2023/09/19 10:20:51;;;;;;;7.93;2.65;;;;;;;24.20;47.97;100922.75;5062772;28;20541;-55
2023/09/19 10:23:23;;;;;;;7.60;2.33;;;;;;;24.26;47.86;100914.72;5056823;28;20064;-54
2023/09/19 10:25:52;;;;;;;8.88;2.47;;;;;;;24.29;47.90;100905.44;5048487;28;20040;-53
2023/09/19 10:28:24;;;;;;;8.82;4.35;;;;;;;24.29;47.30;100908.25;5049854;28;20041;-52
2023/09/19 10:30:52;;;;;;;7.68;2.80;;;;;;;24.29;47.72;100897.81;5051090;28;20060;-53
2023/09/19 10:33:25;;;;;;;10.85;3.75;;;;;;;24.27;47.67;100914.31;5031167;28;20169;-54
2023/09/19 10:35:55;;;;;;;8.60;3.15;;;;;;;24.32;47.14;100908.25;5049951;28;20503;-54
2023/09/19 10:38:24;;;;;;;10.90;4.03;;;;;;;24.32;47.02;100922.34;5046515;28;20046;-49
2023/09/19 10:40:54;;;;;;;8.03;3.30;;;;;;;24.38;47.23;100912.31;5050137;28;20060;-51
2023/09/19 10:43:26;;;;;;;7.18;3.40;;;;;;;24.40;46.78;100893.00;5055681;28;20303;-54
2023/09/19 10:45:54;;;;;;;8.50;3.03;;;;;;;24.36;46.78;100899.81;5052562;28;20052;-52
2023/09/19 10:48:28;;;;;;;7.43;3.67;;;;;;;24.28;47.13;100899.03;5033107;28;20048;-51
2023/09/19 10:51:05;;;;;;;8.40;3.60;;;;;;;24.33;46.53;100898.63;5049775;28;20056;-50
2023/09/19 10:54:03;;;;;;;6.80;3.30;;;;;;;24.38;46.67;100897.41;5050232;28;20053;-53
2023/09/19 10:56:33;;;;;;;9.52;3.78;;;;;;;24.36;46.70;100897.81;5046774;28;20045;-52
2023/09/19 10:59:09;;;;;;;11.65;3.95;;;;;;;24.46;46.47;100901.84;5051034;28;20052;-55
2023/09/19 11:01:44;;;;;;;11.25;4.60;;;;;;;24.42;46.32;100896.22;5041648;28;20048;-51
2023/09/19 11:04:25;;;;;;;12.07;4.25;;;;;;;24.24;46.67;100906.66;5044986;28;20057;-52
2023/09/19 11:07:11;;;;;;;14.85;4.40;;;;;;;24.29;46.60;100900.63;5045764;28;20053;-47
2023/09/19 11:09:53;;;;;;;10.77;5.00;;;;;;;24.31;46.43;100917.13;5047100;28;20040;-55
2023/09/19 11:12:45;;;;;;;12.80;4.15;;;;;;;24.33;47.12;100907.06;5051573;28;20057;-52
2023/09/19 11:15:51;;;;;;;12.65;3.58;;;;;;;24.34;48.52;100905.03;5048781;28;20393;-53
2023/09/19 11:18:40;;;;;;;11.57;4.25;;;;;;;24.78;49.09;100901.81;5057544;28;20430;-52
2023/09/19 11:21:33;;;;;;;10.60;3.75;;;;;;;24.90;49.00;100899.41;5046204;28;20044;-51
2023/09/19 11:24:10;;;;;;;11.95;3.20;;;;;;;24.86;49.90;100897.81;5042351;28;20057;-50
2023/09/19 11:26:48;;;;;;;14.25;3.88;;;;;;;24.95;48.68;100896.16;5042708;28;20056;-50
2023/09/19 11:29:29;;;;;;;9.18;3.72;;;;;;;25.26;50.69;100895.25;5041909;28;20053;-46
2023/09/19 11:31:59;;;;;;;10.68;3.50;;;;;;;25.34;50.22;100890.41;5045769;28;20055;-49
2023/09/19 11:34:36;;;;;;;11.02;3.45;;;;;;;25.53;49.91;100895.56;5048261;28;20040;-50
2023/09/19 11:37:11;;;;;;;8.32;2.90;;;;;;;25.43;48.21;100887.97;5044568;28;20048;-47
2023/09/19 11:39:41;;;;;;;12.27;3.80;;;;;;;25.37;47.73;100878.31;5051117;28;20053;-49
2023/09/19 11:42:41;;;;;;;12.10;3.08;;;;;;;25.20;46.93;100888.44;5044799;28;20049;-51
2023/09/19 11:45:45;;;;;;;8.77;3.50;;;;;;;25.17;47.83;100886.44;5039871;28;20046;-52
2023/09/19 11:48:15;;;;;;;9.48;3.65;;;;;;;25.17;46.56;100886.44;5048900;28;20369;-50
2023/09/19 11:50:47;;;;;;;6.07;2.53;;;;;;;25.22;46.93;100885.22;5044236;28;20499;-50